Boca Raton, FL (33433)

5:52 PM EST on December 25, 2014 (GMT -0500)
Terra Tranquila | Change Station
CLOSE
Current Station
Personal Weather Station
Location: Boca Raton, FL
Elevation: 30 ft
Nearby Weather Stations

Elev 30 ft 26.34 °N, 80.15 °W | Updated 3 seconds ago

Overcast
Overcast
68.7 °F
Feels Like 68.7 °F
N
3.2
Wind Variable Wind from NE
Gusts 4.2 mph

Today
High -- | Low -- °F
--% Chance of Precip.
Yesterday
High -- | Low -- °F
Precip. -- in
7:06 AM 5:35 PM
Waxing Crescent, 20% visible
Pressure 30.16 in
Visibility 10.0 miles
Clouds Scattered Clouds 3600 ft
Mostly Cloudy 6500 ft
Mostly Cloudy 25000 ft
Dew Point 58 °F
Humidity 68%
Rainfall 0.58 in
Snow Depth Not available.
UV 0 out of 12
Pollen 2.90 out of 12
Air Quality Not available.
Flu Activity Not available.
METAR KPMP 252153Z 01009KT 10SM SCT036 BKN065 BKN250 22/12 A3015 RMK AO2 SLP211 T02170117

More Conditions Fewer Conditions

Pressure 30.16 in
Visibility 10.0 miles
Clouds Scattered Clouds 3600 ft
Mostly Cloudy 6500 ft
Mostly Cloudy 25000 ft
Dew Point 58 °F
Humidity 68%
Rainfall 0.58 in
Snow Depth Not available.
UV 0 out of 12
Pollen 2.90 out of 12
Air Quality Not available.
Flu Activity Not available.
METAR KPMP 252153Z 01009KT 10SM SCT036 BKN065 BKN250 22/12 A3015 RMK AO2 SLP211 T02170117

More Conditions Fewer Conditions

10-Day Weather Forecast

Almanac

Astronomy

Dec. 25, 2014 Rise Set
Actual Time
Civil Twilight
Nautical Twilight
Astronomical Twilight
Moon
Length of Visible Light
Length of Day
Tomorrow will be .
, % of the Moon is Illuminated

Today's Extremes

State Highs State Lows

Community

WunderPhotos

Upload Photos

1,780,431 photos uploaded!

WunderBlogs® & News

Nearby

Air Quality

  Air Quality AQ Index Pollutant
Not available.

Snow Depth

Station Depth Elevation

Earthquake Activity

City Distance Mag. Time & Date
Minimum magnitude displayed is 2.5.

Coastal Water Temperatures

Place Temperature

Nearby Weather Stations